sensor_id;sensor_type;location;lat;lon;timestamp;P1;durP1;ratioP1;P2;durP2;ratioP2
7047;SDS011;3565;53.254;10.352;2023-02-03T06:45:17;1.33;;;1.23;;
7047;SDS011;3565;53.254;10.352;2023-02-03T06:47:47;2.37;;;1.30;;
7047;SDS011;3565;53.254;10.352;2023-02-03T06:50:16;1.93;;;1.43;;
7047;SDS011;3565;53.254;10.352;2023-02-03T06:52:45;1.83;;;1.40;;
7047;SDS011;3565;53.254;10.352;2023-02-03T06:55:17;1.77;;;1.30;;
7047;SDS011;3565;53.254;10.352;2023-02-03T06:57:47;1.87;;;1.30;;
7047;SDS011;3565;53.254;10.352;2023-02-03T07:00:18;1.97;;;1.40;;
7047;SDS011;3565;53.254;10.352;2023-02-03T07:02:52;1.60;;;1.50;;
7047;SDS011;3565;53.254;10.352;2023-02-03T07:05:23;4.00;;;1.23;;
7047;SDS011;3565;53.254;10.352;2023-02-03T07:07:54;1.80;;;1.23;;
7047;SDS011;3565;53.254;10.352;2023-02-03T07:10:24;1.97;;;1.13;;
7047;SDS011;3565;53.254;10.352;2023-02-03T07:12:53;1.63;;;1.40;;
7047;SDS011;3565;53.254;10.352;2023-02-03T07:15:24;3.20;;;1.30;;
7047;SDS011;3565;53.254;10.352;2023-02-03T07:17:55;1.50;;;1.33;;
7047;SDS011;3565;53.254;10.352;2023-02-03T07:20:24;1.50;;;1.37;;
7047;SDS011;3565;53.254;10.352;2023-02-03T07:22:54;2.60;;;1.20;;
7047;SDS011;3565;53.254;10.352;2023-02-03T07:25:25;2.30;;;1.30;;
7047;SDS011;3565;53.254;10.352;2023-02-03T07:27:54;1.90;;;1.33;;
7047;SDS011;3565;53.254;10.352;2023-02-03T07:30:24;1.60;;;1.40;;
7047;SDS011;3565;53.254;10.352;2023-02-03T07:32:54;3.50;;;1.30;;
7047;SDS011;3565;53.254;10.352;2023-02-03T07:35:23;1.93;;;1.33;;
7047;SDS011;3565;53.254;10.352;2023-02-03T07:37:53;2.37;;;1.40;;
7047;SDS011;3565;53.254;10.352;2023-02-03T07:40:22;5.08;;;1.45;;
7047;SDS011;3565;53.254;10.352;2023-02-03T07:42:51;1.75;;;1.30;;
7047;SDS011;3565;53.254;10.352;2023-02-03T07:48:00;2.50;;;1.30;;
7047;SDS011;3565;53.254;10.352;2023-02-03T07:50:32;1.90;;;1.50;;
7047;SDS011;3565;53.254;10.352;2023-02-03T07:53:02;2.27;;;1.30;;
7047;SDS011;3565;53.254;10.352;2023-02-03T07:55:36;3.67;;;1.30;;
7047;SDS011;3565;53.254;10.352;2023-02-03T07:58:05;5.83;;;1.50;;
7047;SDS011;3565;53.254;10.352;2023-02-03T08:00:36;1.80;;;1.30;;
7047;SDS011;3565;53.254;10.352;2023-02-03T08:03:06;1.70;;;1.40;;
7047;SDS011;3565;53.254;10.352;2023-02-03T08:05:36;2.60;;;1.27;;
7047;SDS011;3565;53.254;10.352;2023-02-03T08:08:06;4.97;;;1.60;;
7047;SDS011;3565;53.254;10.352;2023-02-03T08:10:36;2.83;;;1.70;;
7047;SDS011;3565;53.254;10.352;2023-02-03T08:13:05;2.60;;;1.73;;
7047;SDS011;3565;53.254;10.352;2023-02-03T08:15:34;4.47;;;1.40;;
7047;SDS011;3565;53.254;10.352;2023-02-03T08:18:05;3.60;;;1.63;;
7047;SDS011;3565;53.254;10.352;2023-02-03T08:20:37;2.20;;;1.60;;
7047;SDS011;3565;53.254;10.352;2023-02-03T08:23:08;2.27;;;1.73;;
7047;SDS011;3565;53.254;10.352;2023-02-03T08:25:38;2.20;;;1.50;;
7047;SDS011;3565;53.254;10.352;2023-02-03T08:28:08;2.13;;;1.53;;
7047;SDS011;3565;53.254;10.352;2023-02-03T08:30:38;3.57;;;1.40;;
7047;SDS011;3565;53.254;10.352;2023-02-03T08:33:08;3.20;;;1.53;;
7047;SDS011;3565;53.254;10.352;2023-02-03T08:35:37;2.10;;;1.50;;
7047;SDS011;3565;53.254;10.352;2023-02-03T08:38:08;1.90;;;1.40;;
7047;SDS011;3565;53.254;10.352;2023-02-03T08:40:38;2.43;;;1.50;;
7047;SDS011;3565;53.254;10.352;2023-02-03T08:43:08;1.83;;;1.50;;
7047;SDS011;3565;53.254;10.352;2023-02-03T08:45:39;2.30;;;1.33;;
7047;SDS011;3565;53.254;10.352;2023-02-03T08:48:10;3.03;;;1.70;;
7047;SDS011;3565;53.254;10.352;2023-02-03T08:50:40;1.93;;;1.20;;
7047;SDS011;3565;53.254;10.352;2023-02-03T08:53:14;2.63;;;1.30;;
7047;SDS011;3565;53.254;10.352;2023-02-03T08:55:43;1.90;;;1.50;;
7047;SDS011;3565;53.254;10.352;2023-02-03T08:58:12;2.00;;;1.50;;
7047;SDS011;3565;53.254;10.352;2023-02-03T09:00:43;1.60;;;1.30;;
7047;SDS011;3565;53.254;10.352;2023-02-03T09:03:15;1.57;;;1.40;;
7047;SDS011;3565;53.254;10.352;2023-02-03T09:05:46;1.63;;;1.37;;
7047;SDS011;3565;53.254;10.352;2023-02-03T09:08:16;2.83;;;1.40;;
7047;SDS011;3565;53.254;10.352;2023-02-03T09:10:46;3.00;;;1.70;;
7047;SDS011;3565;53.254;10.352;2023-02-03T09:13:16;3.17;;;1.70;;
7047;SDS011;3565;53.254;10.352;2023-02-03T09:15:46;2.80;;;1.80;;
7047;SDS011;3565;53.254;10.352;2023-02-03T09:18:16;3.17;;;1.90;;
7047;SDS011;3565;53.254;10.352;2023-02-03T09:20:46;3.33;;;2.13;;
7047;SDS011;3565;53.254;10.352;2023-02-03T09:23:16;3.53;;;2.03;;
7047;SDS011;3565;53.254;10.352;2023-02-03T09:25:46;4.23;;;1.90;;
7047;SDS011;3565;53.254;10.352;2023-02-03T09:28:15;2.67;;;1.67;;
7047;SDS011;3565;53.254;10.352;2023-02-03T09:30:45;4.17;;;1.97;;
7047;SDS011;3565;53.254;10.352;2023-02-03T09:33:14;3.20;;;1.83;;
7047;SDS011;3565;53.254;10.352;2023-02-03T09:35:50;5.13;;;1.93;;
7047;SDS011;3565;53.254;10.352;2023-02-03T09:38:21;2.70;;;1.77;;
7047;SDS011;3565;53.254;10.352;2023-02-03T09:40:53;4.37;;;2.00;;
7047;SDS011;3565;53.254;10.352;2023-02-03T09:43:29;3.83;;;2.00;;
7047;SDS011;3565;53.254;10.352;2023-02-03T09:46:04;2.87;;;1.63;;
7047;SDS011;3565;53.254;10.352;2023-02-03T09:48:36;6.60;;;1.90;;
7047;SDS011;3565;53.254;10.352;2023-02-03T09:51:12;4.00;;;1.90;;
7047;SDS011;3565;53.254;10.352;2023-02-03T09:53:46;3.33;;;1.80;;
7047;SDS011;3565;53.254;10.352;2023-02-03T09:56:21;4.93;;;1.77;;
7047;SDS011;3565;53.254;10.352;2023-02-03T09:58:52;2.60;;;1.60;;
7047;SDS011;3565;53.254;10.352;2023-02-03T10:01:22;2.77;;;1.77;;
7047;SDS011;3565;53.254;10.352;2023-02-03T10:03:56;2.27;;;1.70;;
7047;SDS011;3565;53.254;10.352;2023-02-03T10:06:32;3.83;;;1.60;;
7047;SDS011;3565;53.254;10.352;2023-02-03T10:09:11;4.30;;;1.87;;
7047;SDS011;3565;53.254;10.352;2023-02-03T10:11:51;4.93;;;1.90;;
7047;SDS011;3565;53.254;10.352;2023-02-03T10:14:34;3.10;;;1.80;;
7047;SDS011;3565;53.254;10.352;2023-02-03T10:17:13;4.63;;;2.00;;
7047;SDS011;3565;53.254;10.352;2023-02-03T10:19:48;3.83;;;1.90;;
7047;SDS011;3565;53.254;10.352;2023-02-03T10:22:20;4.20;;;2.10;;
7047;SDS011;3565;53.254;10.352;2023-02-03T10:24:54;2.97;;;1.83;;
7047;SDS011;3565;53.254;10.352;2023-02-03T10:27:26;3.40;;;2.07;;
7047;SDS011;3565;53.254;10.352;2023-02-03T10:29:58;3.70;;;2.10;;
7047;SDS011;3565;53.254;10.352;2023-02-03T10:32:29;4.23;;;2.00;;
7047;SDS011;3565;53.254;10.352;2023-02-03T10:35:00;3.87;;;2.10;;
7047;SDS011;3565;53.254;10.352;2023-02-03T10:37:32;3.57;;;2.00;;
7047;SDS011;3565;53.254;10.352;2023-02-03T10:40:09;5.27;;;2.07;;
7047;SDS011;3565;53.254;10.352;2023-02-03T10:42:40;4.40;;;2.00;;
7047;SDS011;3565;53.254;10.352;2023-02-03T10:45:30;3.67;;;1.90;;
7047;SDS011;3565;53.254;10.352;2023-02-03T10:48:02;4.17;;;1.97;;
7047;SDS011;3565;53.254;10.352;2023-02-03T10:50:35;3.87;;;2.10;;
7047;SDS011;3565;53.254;10.352;2023-02-03T10:53:24;3.97;;;1.80;;
7047;SDS011;3565;53.254;10.352;2023-02-03T10:56:03;3.13;;;1.90;;
7047;SDS011;3565;53.254;10.352;2023-02-03T10:58:34;3.40;;;1.93;;
7047;SDS011;3565;53.254;10.352;2023-02-03T11:01:07;4.70;;;2.27;;
7047;SDS011;3565;53.254;10.352;2023-02-03T11:03:38;7.03;;;2.20;;
7047;SDS011;3565;53.254;10.352;2023-02-03T11:06:10;3.80;;;2.03;;
7047;SDS011;3565;53.254;10.352;2023-02-03T11:08:42;3.60;;;2.20;;
7047;SDS011;3565;53.254;10.352;2023-02-03T11:11:14;3.13;;;2.07;;
7047;SDS011;3565;53.254;10.352;2023-02-03T11:13:53;4.37;;;2.00;;
7047;SDS011;3565;53.254;10.352;2023-02-03T11:16:24;3.93;;;2.40;;
7047;SDS011;3565;53.254;10.352;2023-02-03T11:18:55;5.03;;;2.47;;
7047;SDS011;3565;53.254;10.352;2023-02-03T11:21:27;6.27;;;2.53;;
7047;SDS011;3565;53.254;10.352;2023-02-03T11:24:02;4.53;;;2.20;;
7047;SDS011;3565;53.254;10.352;2023-02-03T11:26:35;4.70;;;2.13;;
7047;SDS011;3565;53.254;10.352;2023-02-03T11:29:13;4.70;;;2.30;;
7047;SDS011;3565;53.254;10.352;2023-02-03T11:31:45;5.27;;;2.70;;
7047;SDS011;3565;53.254;10.352;2023-02-03T11:34:18;5.13;;;2.63;;
7047;SDS011;3565;53.254;10.352;2023-02-03T11:36:51;3.50;;;2.20;;
7047;SDS011;3565;53.254;10.352;2023-02-03T11:39:24;4.77;;;2.50;;
7047;SDS011;3565;53.254;10.352;2023-02-03T11:41:55;5.13;;;2.33;;
7047;SDS011;3565;53.254;10.352;2023-02-03T11:44:25;7.45;;;2.58;;
7047;SDS011;3565;53.254;10.352;2023-02-03T11:46:59;6.07;;;2.50;;
7047;SDS011;3565;53.254;10.352;2023-02-03T11:49:47;6.20;;;2.73;;
7047;SDS011;3565;53.254;10.352;2023-02-03T11:52:34;6.80;;;2.70;;
7047;SDS011;3565;53.254;10.352;2023-02-03T11:55:18;6.27;;;2.47;;
7047;SDS011;3565;53.254;10.352;2023-02-03T11:57:53;5.77;;;2.70;;
7047;SDS011;3565;53.254;10.352;2023-02-03T12:00:29;5.20;;;2.40;;
7047;SDS011;3565;53.254;10.352;2023-02-03T12:03:12;7.30;;;2.90;;
7047;SDS011;3565;53.254;10.352;2023-02-03T12:06:14;5.20;;;2.33;;
7047;SDS011;3565;53.254;10.352;2023-02-03T12:11:52;5.77;;;2.40;;
7047;SDS011;3565;53.254;10.352;2023-02-03T12:14:31;6.10;;;2.60;;
7047;SDS011;3565;53.254;10.352;2023-02-03T12:17:18;6.37;;;2.67;;
7047;SDS011;3565;53.254;10.352;2023-02-03T12:20:00;5.70;;;2.37;;
7047;SDS011;3565;53.254;10.352;2023-02-03T12:22:38;5.97;;;2.47;;
7047;SDS011;3565;53.254;10.352;2023-02-03T12:35:20;3.97;;;2.30;;
7047;SDS011;3565;53.254;10.352;2023-02-03T12:37:51;5.37;;;2.30;;
7047;SDS011;3565;53.254;10.352;2023-02-03T12:40:23;4.77;;;2.80;;
7047;SDS011;3565;53.254;10.352;2023-02-03T12:42:56;4.63;;;2.60;;
7047;SDS011;3565;53.254;10.352;2023-02-03T12:45:29;6.10;;;2.70;;
7047;SDS011;3565;53.254;10.352;2023-02-03T12:48:03;4.90;;;2.53;;
7047;SDS011;3565;53.254;10.352;2023-02-03T12:50:36;6.03;;;2.90;;
7047;SDS011;3565;53.254;10.352;2023-02-03T12:53:10;4.53;;;2.60;;
7047;SDS011;3565;53.254;10.352;2023-02-03T12:55:41;5.43;;;2.50;;
7047;SDS011;3565;53.254;10.352;2023-02-03T12:58:17;6.13;;;2.53;;
7047;SDS011;3565;53.254;10.352;2023-02-03T13:00:49;7.03;;;2.67;;
7047;SDS011;3565;53.254;10.352;2023-02-03T13:06:03;5.97;;;2.50;;
7047;SDS011;3565;53.254;10.352;2023-02-03T13:08:36;4.93;;;2.67;;
7047;SDS011;3565;53.254;10.352;2023-02-03T13:13:49;5.13;;;2.60;;
7047;SDS011;3565;53.254;10.352;2023-02-03T13:16:23;5.97;;;2.47;;
7047;SDS011;3565;53.254;10.352;2023-02-03T13:18:57;7.60;;;3.10;;
7047;SDS011;3565;53.254;10.352;2023-02-03T13:21:37;4.67;;;2.40;;
7047;SDS011;3565;53.254;10.352;2023-02-03T13:24:08;4.90;;;2.60;;
7047;SDS011;3565;53.254;10.352;2023-02-03T13:26:46;6.17;;;2.70;;
7047;SDS011;3565;53.254;10.352;2023-02-03T13:29:39;6.33;;;2.90;;
7047;SDS011;3565;53.254;10.352;2023-02-03T13:32:36;4.93;;;2.50;;
7047;SDS011;3565;53.254;10.352;2023-02-03T13:35:30;4.43;;;2.40;;
7047;SDS011;3565;53.254;10.352;2023-02-03T13:38:09;5.37;;;2.30;;
7047;SDS011;3565;53.254;10.352;2023-02-03T13:40:46;5.57;;;2.53;;
7047;SDS011;3565;53.254;10.352;2023-02-03T13:43:21;4.73;;;2.47;;
7047;SDS011;3565;53.254;10.352;2023-02-03T13:45:53;4.77;;;2.40;;
7047;SDS011;3565;53.254;10.352;2023-02-03T13:48:23;5.03;;;2.53;;
7047;SDS011;3565;53.254;10.352;2023-02-03T13:51:02;4.53;;;2.43;;
7047;SDS011;3565;53.254;10.352;2023-02-03T13:53:34;5.10;;;2.90;;
7047;SDS011;3565;53.254;10.352;2023-02-03T13:56:06;5.57;;;2.60;;
7047;SDS011;3565;53.254;10.352;2023-02-03T13:58:38;5.57;;;2.67;;
7047;SDS011;3565;53.254;10.352;2023-02-03T14:01:27;6.20;;;2.87;;
7047;SDS011;3565;53.254;10.352;2023-02-03T14:03:59;5.80;;;3.37;;
7047;SDS011;3565;53.254;10.352;2023-02-03T14:09:37;3.63;;;2.53;;
7047;SDS011;3565;53.254;10.352;2023-02-03T14:15:31;6.23;;;2.80;;
7047;SDS011;3565;53.254;10.352;2023-02-03T14:18:29;3.87;;;2.80;;
7047;SDS011;3565;53.254;10.352;2023-02-03T14:20:56;5.43;;;2.97;;
7047;SDS011;3565;53.254;10.352;2023-02-03T14:23:56;5.40;;;3.30;;
7047;SDS011;3565;53.254;10.352;2023-02-03T14:26:29;6.13;;;3.40;;
7047;SDS011;3565;53.254;10.352;2023-02-03T14:29:07;6.10;;;3.50;;
7047;SDS011;3565;53.254;10.352;2023-02-03T14:34:40;6.50;;;3.70;;
7047;SDS011;3565;53.254;10.352;2023-02-03T14:37:17;6.23;;;3.43;;
7047;SDS011;3565;53.254;10.352;2023-02-03T14:40:05;4.80;;;3.73;;
7047;SDS011;3565;53.254;10.352;2023-02-03T14:42:52;5.50;;;3.70;;
7047;SDS011;3565;53.254;10.352;2023-02-03T14:45:30;7.37;;;4.73;;
7047;SDS011;3565;53.254;10.352;2023-02-03T14:48:28;5.80;;;5.00;;
7047;SDS011;3565;53.254;10.352;2023-02-03T14:51:04;9.53;;;5.70;;
7047;SDS011;3565;53.254;10.352;2023-02-03T14:53:53;7.37;;;5.83;;
7047;SDS011;3565;53.254;10.352;2023-02-03T14:56:29;6.87;;;5.80;;
7047;SDS011;3565;53.254;10.352;2023-02-03T14:59:03;7.20;;;5.20;;
7047;SDS011;3565;53.254;10.352;2023-02-03T15:04:46;6.10;;;4.90;;
7047;SDS011;3565;53.254;10.352;2023-02-03T15:07:37;6.50;;;4.50;;
7047;SDS011;3565;53.254;10.352;2023-02-03T15:10:14;5.10;;;4.10;;
7047;SDS011;3565;53.254;10.352;2023-02-03T15:12:45;5.90;;;4.23;;
7047;SDS011;3565;53.254;10.352;2023-02-03T15:15:21;5.03;;;4.07;;
7047;SDS011;3565;53.254;10.352;2023-02-03T15:17:52;5.77;;;4.10;;
7047;SDS011;3565;53.254;10.352;2023-02-03T15:20:26;4.10;;;3.50;;
7047;SDS011;3565;53.254;10.352;2023-02-03T15:23:00;4.17;;;3.43;;
7047;SDS011;3565;53.254;10.352;2023-02-03T15:25:32;5.27;;;3.57;;
7047;SDS011;3565;53.254;10.352;2023-02-03T15:28:10;6.83;;;3.23;;
7047;SDS011;3565;53.254;10.352;2023-02-03T15:30:42;4.93;;;3.10;;
7047;SDS011;3565;53.254;10.352;2023-02-03T15:33:14;7.27;;;3.50;;
7047;SDS011;3565;53.254;10.352;2023-02-03T15:35:46;6.10;;;3.10;;
7047;SDS011;3565;53.254;10.352;2023-02-03T15:38:22;5.60;;;3.57;;
7047;SDS011;3565;53.254;10.352;2023-02-03T15:40:53;5.23;;;3.20;;
7047;SDS011;3565;53.254;10.352;2023-02-03T15:43:25;4.80;;;3.03;;
7047;SDS011;3565;53.254;10.352;2023-02-03T15:46:01;6.20;;;3.47;;
7047;SDS011;3565;53.254;10.352;2023-02-03T15:48:36;7.40;;;3.23;;
7047;SDS011;3565;53.254;10.352;2023-02-03T15:51:09;5.10;;;3.00;;
7047;SDS011;3565;53.254;10.352;2023-02-03T15:53:46;4.30;;;2.40;;
7047;SDS011;3565;53.254;10.352;2023-02-03T15:56:22;5.57;;;3.03;;
7047;SDS011;3565;53.254;10.352;2023-02-03T15:58:54;5.33;;;2.77;;
7047;SDS011;3565;53.254;10.352;2023-02-03T16:01:24;5.47;;;2.90;;
7047;SDS011;3565;53.254;10.352;2023-02-03T16:03:55;5.27;;;2.80;;
7047;SDS011;3565;53.254;10.352;2023-02-03T16:06:26;6.13;;;3.30;;
7047;SDS011;3565;53.254;10.352;2023-02-03T16:08:59;7.13;;;2.87;;
7047;SDS011;3565;53.254;10.352;2023-02-03T16:11:31;5.67;;;2.60;;
7047;SDS011;3565;53.254;10.352;2023-02-03T16:14:02;5.20;;;2.83;;
7047;SDS011;3565;53.254;10.352;2023-02-03T16:16:36;6.67;;;2.70;;
7047;SDS011;3565;53.254;10.352;2023-02-03T16:19:10;4.47;;;2.70;;
7047;SDS011;3565;53.254;10.352;2023-02-03T16:21:51;6.33;;;2.73;;
7047;SDS011;3565;53.254;10.352;2023-02-03T16:24:34;4.53;;;2.53;;
7047;SDS011;3565;53.254;10.352;2023-02-03T16:27:19;4.80;;;2.43;;
7047;SDS011;3565;53.254;10.352;2023-02-03T16:30:16;6.10;;;2.77;;
7047;SDS011;3565;53.254;10.352;2023-02-03T16:33:11;5.23;;;2.43;;
7047;SDS011;3565;53.254;10.352;2023-02-03T16:36:01;4.93;;;2.70;;
7047;SDS011;3565;53.254;10.352;2023-02-03T16:38:56;5.90;;;2.60;;
7047;SDS011;3565;53.254;10.352;2023-02-03T16:41:45;6.43;;;2.83;;
7047;SDS011;3565;53.254;10.352;2023-02-03T16:44:34;6.97;;;2.70;;
7047;SDS011;3565;53.254;10.352;2023-02-03T16:47:22;6.57;;;2.87;;
7047;SDS011;3565;53.254;10.352;2023-02-03T16:50:12;6.23;;;2.93;;
7047;SDS011;3565;53.254;10.352;2023-02-03T16:53:01;7.23;;;2.93;;
7047;SDS011;3565;53.254;10.352;2023-02-03T16:55:30;6.13;;;2.50;;
7047;SDS011;3565;53.254;10.352;2023-02-03T16:58:01;4.73;;;2.50;;
7047;SDS011;3565;53.254;10.352;2023-02-03T17:00:31;5.43;;;2.50;;
7047;SDS011;3565;53.254;10.352;2023-02-03T17:03:02;6.33;;;2.67;;
7047;SDS011;3565;53.254;10.352;2023-02-03T17:05:35;5.50;;;2.70;;
7047;SDS011;3565;53.254;10.352;2023-02-03T17:08:05;7.03;;;2.70;;
7047;SDS011;3565;53.254;10.352;2023-02-03T17:10:36;5.83;;;2.60;;
7047;SDS011;3565;53.254;10.352;2023-02-03T17:13:06;7.07;;;3.07;;
7047;SDS011;3565;53.254;10.352;2023-02-03T17:15:38;5.13;;;2.50;;
7047;SDS011;3565;53.254;10.352;2023-02-03T17:18:08;4.97;;;2.37;;
7047;SDS011;3565;53.254;10.352;2023-02-03T17:20:37;7.23;;;3.30;;
7047;SDS011;3565;53.254;10.352;2023-02-03T17:23:09;5.77;;;2.70;;
7047;SDS011;3565;53.254;10.352;2023-02-03T17:25:39;6.83;;;2.60;;
7047;SDS011;3565;53.254;10.352;2023-02-03T17:28:11;6.07;;;2.50;;
7047;SDS011;3565;53.254;10.352;2023-02-03T17:30:40;6.13;;;2.87;;
7047;SDS011;3565;53.254;10.352;2023-02-03T17:33:10;6.00;;;2.80;;
7047;SDS011;3565;53.254;10.352;2023-02-03T17:35:54;6.77;;;3.03;;
7047;SDS011;3565;53.254;10.352;2023-02-03T17:38:27;7.93;;;2.70;;
7047;SDS011;3565;53.254;10.352;2023-02-03T17:40:56;5.00;;;2.67;;
7047;SDS011;3565;53.254;10.352;2023-02-03T17:43:27;6.33;;;2.83;;
7047;SDS011;3565;53.254;10.352;2023-02-03T17:45:59;6.90;;;2.93;;
7047;SDS011;3565;53.254;10.352;2023-02-03T17:48:30;5.87;;;2.80;;
7047;SDS011;3565;53.254;10.352;2023-02-03T17:51:10;7.37;;;2.70;;
7047;SDS011;3565;53.254;10.352;2023-02-03T17:53:42;7.10;;;3.00;;
7047;SDS011;3565;53.254;10.352;2023-02-03T17:56:13;4.70;;;2.77;;
7047;SDS011;3565;53.254;10.352;2023-02-03T17:58:45;4.57;;;2.33;;
7047;SDS011;3565;53.254;10.352;2023-02-03T18:01:15;6.37;;;2.90;;
7047;SDS011;3565;53.254;10.352;2023-02-03T18:03:46;6.10;;;2.73;;
7047;SDS011;3565;53.254;10.352;2023-02-03T18:06:18;6.37;;;3.27;;
7047;SDS011;3565;53.254;10.352;2023-02-03T18:08:49;6.20;;;2.97;;
7047;SDS011;3565;53.254;10.352;2023-02-03T18:11:19;6.23;;;2.60;;
7047;SDS011;3565;53.254;10.352;2023-02-03T18:13:48;5.83;;;2.73;;
7047;SDS011;3565;53.254;10.352;2023-02-03T18:16:19;5.10;;;2.73;;
7047;SDS011;3565;53.254;10.352;2023-02-03T18:18:52;6.67;;;2.80;;
7047;SDS011;3565;53.254;10.352;2023-02-03T18:21:22;4.30;;;2.70;;
7047;SDS011;3565;53.254;10.352;2023-02-03T18:23:53;4.87;;;2.20;;
7047;SDS011;3565;53.254;10.352;2023-02-03T18:26:25;6.30;;;3.10;;
7047;SDS011;3565;53.254;10.352;2023-02-03T18:28:55;5.47;;;3.00;;
7047;SDS011;3565;53.254;10.352;2023-02-03T18:31:24;6.47;;;2.80;;
7047;SDS011;3565;53.254;10.352;2023-02-03T18:33:54;4.90;;;2.50;;
7047;SDS011;3565;53.254;10.352;2023-02-03T18:36:25;5.80;;;2.50;;
7047;SDS011;3565;53.254;10.352;2023-02-03T18:39:04;6.03;;;2.77;;
7047;SDS011;3565;53.254;10.352;2023-02-03T18:41:33;4.93;;;3.03;;
7047;SDS011;3565;53.254;10.352;2023-02-03T18:44:04;4.90;;;2.23;;
7047;SDS011;3565;53.254;10.352;2023-02-03T18:46:34;7.47;;;3.23;;
7047;SDS011;3565;53.254;10.352;2023-02-03T18:49:06;6.07;;;2.73;;
7047;SDS011;3565;53.254;10.352;2023-02-03T18:51:35;6.33;;;2.60;;
7047;SDS011;3565;53.254;10.352;2023-02-03T18:54:05;5.33;;;2.33;;
7047;SDS011;3565;53.254;10.352;2023-02-03T18:56:44;4.63;;;2.90;;
7047;SDS011;3565;53.254;10.352;2023-02-03T18:59:14;6.30;;;3.00;;
7047;SDS011;3565;53.254;10.352;2023-02-03T19:01:43;6.33;;;2.53;;
7047;SDS011;3565;53.254;10.352;2023-02-03T19:04:14;4.73;;;2.37;;
7047;SDS011;3565;53.254;10.352;2023-02-03T19:06:44;5.10;;;2.63;;
7047;SDS011;3565;53.254;10.352;2023-02-03T19:09:14;4.80;;;2.60;;
7047;SDS011;3565;53.254;10.352;2023-02-03T19:11:46;5.30;;;2.63;;
7047;SDS011;3565;53.254;10.352;2023-02-03T19:14:17;4.83;;;2.50;;
7047;SDS011;3565;53.254;10.352;2023-02-03T19:16:47;5.47;;;2.67;;
7047;SDS011;3565;53.254;10.352;2023-02-03T19:19:18;4.70;;;2.50;;
7047;SDS011;3565;53.254;10.352;2023-02-03T19:21:49;5.70;;;2.60;;
7047;SDS011;3565;53.254;10.352;2023-02-03T19:24:18;5.30;;;2.57;;
7047;SDS011;3565;53.254;10.352;2023-02-03T19:26:49;4.60;;;2.50;;
7047;SDS011;3565;53.254;10.352;2023-02-03T19:29:19;6.10;;;2.80;;
7047;SDS011;3565;53.254;10.352;2023-02-03T19:31:48;6.97;;;2.80;;
7047;SDS011;3565;53.254;10.352;2023-02-03T19:34:17;5.73;;;2.77;;
7047;SDS011;3565;53.254;10.352;2023-02-03T19:36:47;7.20;;;2.80;;
7047;SDS011;3565;53.254;10.352;2023-02-03T19:39:18;6.23;;;2.90;;
7047;SDS011;3565;53.254;10.352;2023-02-03T19:41:48;3.77;;;2.43;;
7047;SDS011;3565;53.254;10.352;2023-02-03T19:44:29;7.20;;;2.80;;
7047;SDS011;3565;53.254;10.352;2023-02-03T19:47:00;7.10;;;2.97;;
7047;SDS011;3565;53.254;10.352;2023-02-03T19:49:31;5.03;;;2.30;;
7047;SDS011;3565;53.254;10.352;2023-02-03T19:52:01;7.03;;;2.73;;
7047;SDS011;3565;53.254;10.352;2023-02-03T19:54:32;5.80;;;2.80;;
7047;SDS011;3565;53.254;10.352;2023-02-03T19:57:02;4.10;;;2.50;;
7047;SDS011;3565;53.254;10.352;2023-02-03T19:59:34;4.47;;;2.60;;
7047;SDS011;3565;53.254;10.352;2023-02-03T20:02:03;6.03;;;2.63;;
7047;SDS011;3565;53.254;10.352;2023-02-03T20:04:34;5.93;;;2.40;;
7047;SDS011;3565;53.254;10.352;2023-02-03T20:07:04;4.97;;;2.57;;
7047;SDS011;3565;53.254;10.352;2023-02-03T20:09:47;4.60;;;2.70;;
7047;SDS011;3565;53.254;10.352;2023-02-03T20:12:17;5.63;;;2.77;;
7047;SDS011;3565;53.254;10.352;2023-02-03T20:14:47;7.37;;;2.73;;
7047;SDS011;3565;53.254;10.352;2023-02-03T20:17:17;5.10;;;2.60;;
7047;SDS011;3565;53.254;10.352;2023-02-03T20:19:46;6.47;;;2.80;;
7047;SDS011;3565;53.254;10.352;2023-02-03T20:22:15;5.40;;;2.70;;
7047;SDS011;3565;53.254;10.352;2023-02-03T20:24:45;5.83;;;3.00;;
7047;SDS011;3565;53.254;10.352;2023-02-03T20:27:14;5.70;;;2.57;;
7047;SDS011;3565;53.254;10.352;2023-02-03T20:29:43;6.27;;;2.60;;
7047;SDS011;3565;53.254;10.352;2023-02-03T20:32:14;5.83;;;2.80;;
7047;SDS011;3565;53.254;10.352;2023-02-03T20:34:54;7.07;;;2.93;;
7047;SDS011;3565;53.254;10.352;2023-02-03T20:37:25;4.53;;;2.60;;
7047;SDS011;3565;53.254;10.352;2023-02-03T20:39:54;4.83;;;2.60;;
7047;SDS011;3565;53.254;10.352;2023-02-03T20:42:25;4.53;;;2.33;;
7047;SDS011;3565;53.254;10.352;2023-02-03T20:44:54;5.53;;;2.50;;
7047;SDS011;3565;53.254;10.352;2023-02-03T20:47:24;5.00;;;2.53;;
7047;SDS011;3565;53.254;10.352;2023-02-03T20:49:55;5.37;;;2.73;;
7047;SDS011;3565;53.254;10.352;2023-02-03T20:52:24;4.50;;;2.40;;
7047;SDS011;3565;53.254;10.352;2023-02-03T20:54:53;6.17;;;2.70;;
7047;SDS011;3565;53.254;10.352;2023-02-03T20:57:24;4.70;;;2.63;;
7047;SDS011;3565;53.254;10.352;2023-02-03T21:00:07;6.20;;;2.90;;
7047;SDS011;3565;53.254;10.352;2023-02-03T21:02:43;5.33;;;2.70;;
7047;SDS011;3565;53.254;10.352;2023-02-03T21:08:21;5.17;;;2.53;;
7047;SDS011;3565;53.254;10.352;2023-02-03T21:10:52;7.43;;;3.20;;
7047;SDS011;3565;53.254;10.352;2023-02-03T21:13:32;4.03;;;2.47;;
7047;SDS011;3565;53.254;10.352;2023-02-03T21:16:10;4.17;;;2.23;;
7047;SDS011;3565;53.254;10.352;2023-02-03T21:18:43;4.63;;;2.30;;
7047;SDS011;3565;53.254;10.352;2023-02-03T21:21:14;4.87;;;2.50;;
7047;SDS011;3565;53.254;10.352;2023-02-03T21:23:47;6.40;;;2.57;;
7047;SDS011;3565;53.254;10.352;2023-02-03T21:26:20;4.20;;;2.37;;
7047;SDS011;3565;53.254;10.352;2023-02-03T21:28:51;5.73;;;2.13;;
7047;SDS011;3565;53.254;10.352;2023-02-03T21:34:00;4.73;;;2.33;;
7047;SDS011;3565;53.254;10.352;2023-02-03T21:36:33;5.83;;;2.40;;
7047;SDS011;3565;53.254;10.352;2023-02-03T21:39:07;4.37;;;2.47;;
7047;SDS011;3565;53.254;10.352;2023-02-03T21:41:37;3.73;;;2.23;;
7047;SDS011;3565;53.254;10.352;2023-02-03T21:44:19;4.23;;;2.17;;
7047;SDS011;3565;53.254;10.352;2023-02-03T21:46:49;4.63;;;2.13;;
7047;SDS011;3565;53.254;10.352;2023-02-03T21:49:20;3.80;;;2.00;;
7047;SDS011;3565;53.254;10.352;2023-02-03T21:52:02;4.27;;;2.13;;
7047;SDS011;3565;53.254;10.352;2023-02-03T21:54:36;5.07;;;2.43;;
7047;SDS011;3565;53.254;10.352;2023-02-03T21:57:09;3.47;;;1.90;;
7047;SDS011;3565;53.254;10.352;2023-02-03T21:59:41;3.50;;;1.97;;
7047;SDS011;3565;53.254;10.352;2023-02-03T22:05:00;3.70;;;1.87;;
7047;SDS011;3565;53.254;10.352;2023-02-03T22:07:30;4.23;;;2.10;;
7047;SDS011;3565;53.254;10.352;2023-02-03T22:10:00;5.53;;;2.07;;
7047;SDS011;3565;53.254;10.352;2023-02-03T22:12:29;4.43;;;2.00;;
7047;SDS011;3565;53.254;10.352;2023-02-03T22:14:59;3.80;;;2.00;;
7047;SDS011;3565;53.254;10.352;2023-02-03T22:17:28;3.20;;;1.90;;
7047;SDS011;3565;53.254;10.352;2023-02-03T22:19:57;3.60;;;2.10;;
7047;SDS011;3565;53.254;10.352;2023-02-03T22:22:26;4.80;;;2.20;;
7047;SDS011;3565;53.254;10.352;2023-02-03T22:24:57;4.23;;;2.13;;
7047;SDS011;3565;53.254;10.352;2023-02-03T22:27:27;3.50;;;2.00;;
7047;SDS011;3565;53.254;10.352;2023-02-03T22:29:58;2.30;;;1.70;;
7047;SDS011;3565;53.254;10.352;2023-02-03T22:32:28;2.77;;;1.83;;
7047;SDS011;3565;53.254;10.352;2023-02-03T22:34:59;2.37;;;1.63;;
7047;SDS011;3565;53.254;10.352;2023-02-03T22:37:30;3.60;;;1.87;;
7047;SDS011;3565;53.254;10.352;2023-02-03T22:40:10;3.73;;;1.70;;
7047;SDS011;3565;53.254;10.352;2023-02-03T22:42:41;4.80;;;1.73;;
7047;SDS011;3565;53.254;10.352;2023-02-03T22:45:11;2.50;;;1.67;;
7047;SDS011;3565;53.254;10.352;2023-02-03T22:47:41;3.03;;;1.63;;
7047;SDS011;3565;53.254;10.352;2023-02-03T22:50:12;3.40;;;1.67;;
7047;SDS011;3565;53.254;10.352;2023-02-03T22:52:43;3.57;;;1.77;;
7047;SDS011;3565;53.254;10.352;2023-02-03T22:55:13;2.97;;;1.60;;
7047;SDS011;3565;53.254;10.352;2023-02-03T22:57:42;10.17;;;2.00;;
7047;SDS011;3565;53.254;10.352;2023-02-03T23:00:13;3.10;;;1.70;;
7047;SDS011;3565;53.254;10.352;2023-02-03T23:02:47;3.20;;;1.80;;
7047;SDS011;3565;53.254;10.352;2023-02-03T23:05:17;2.70;;;1.93;;